Time;durP1;ratioP1;P1;durP2;ratioP2;P2;SDS_P1;SDS_P2;PMS_P1;PMS_P2;Temp;Humidity;BMP_temperature;BMP_pressure;BME280_temperature;BME280_humidity;BME280_pressure;Samples;Min_cycle;Max_cycle;Signal;HPM_P1;HPM_P2
2021/03/23 00:01:10;;;;;;;12.30;4.25;;;5.60;89.80;;;;;;5020029;28;20438;-82
2021/03/23 00:03:39;;;;;;;6.53;4.70;;;5.60;89.90;;;;;;5021973;28;20040;-82
2021/03/23 00:06:06;;;;;;;11.00;4.50;;;5.60;89.90;;;;;;5024631;28;20037;-81
2021/03/23 00:08:38;;;;;;;11.13;4.70;;;5.60;89.90;;;;;;5025211;28;20034;-83
2021/03/23 00:11:16;;;;;;;14.82;4.00;;;5.60;90.00;;;;;;5025703;28;20029;-82
2021/03/23 00:13:44;;;;;;;6.80;3.80;;;5.50;90.00;;;;;;5032658;28;20480;-82
2021/03/23 00:16:11;;;;;;;13.18;3.72;;;5.60;90.00;;;;;;5025089;28;20465;-82
2021/03/23 00:18:39;;;;;;;10.15;3.35;;;5.60;90.00;;;;;;5008386;28;20033;-82
2021/03/23 00:21:06;;;;;;;6.28;3.50;;;5.50;90.00;;;;;;5023150;28;20036;-82
2021/03/23 00:23:32;;;;;;;7.93;3.22;;;5.60;89.90;;;;;;5025153;28;20106;-82
2021/03/23 00:25:58;;;;;;;9.07;3.53;;;5.60;89.90;;;;;;5006322;28;20119;-81
2021/03/23 00:28:24;;;;;;;9.02;3.42;;;5.50;89.90;;;;;;5022068;28;20034;-80
2021/03/23 00:30:53;;;;;;;7.65;2.97;;;5.60;90.00;;;;;;5008385;28;20029;-82
2021/03/23 00:33:19;;;;;;;7.60;3.40;;;5.60;89.90;;;;;;5002857;28;20032;-81
2021/03/23 00:35:45;;;;;;;7.60;3.20;;;5.50;89.90;;;;;;5009025;28;20045;-82
2021/03/23 00:38:11;;;;;;;8.68;3.30;;;5.60;90.00;;;;;;4989992;28;20038;-80
2021/03/23 00:40:38;;;;;;;6.45;3.20;;;5.60;90.00;;;;;;5020548;28;20408;-81
2021/03/23 00:43:06;;;;;;;6.13;2.90;;;5.60;90.00;;;;;;5021623;28;20034;-82
2021/03/23 00:45:38;;;;;;;7.25;3.00;;;5.60;90.00;;;;;;5023431;28;20476;-81
2021/03/23 00:48:05;;;;;;;5.38;2.83;;;5.60;90.00;;;;;;5030796;28;20037;-82
2021/03/23 00:50:31;;;;;;;7.15;3.35;;;5.60;90.00;;;;;;5001269;28;20038;-81
2021/03/23 00:52:57;;;;;;;4.82;3.17;;;5.60;90.10;;;;;;5020173;28;20041;-81
2021/03/23 00:55:23;;;;;;;8.85;3.30;;;5.60;90.10;;;;;;4986946;28;20092;-81
2021/03/23 00:57:49;;;;;;;5.50;3.45;;;5.60;90.10;;;;;;5023314;28;20124;-81
2021/03/23 01:00:16;;;;;;;6.82;3.00;;;5.60;90.10;;;;;;5009219;28;20109;-81
2021/03/23 01:02:43;;;;;;;8.98;3.42;;;5.60;90.20;;;;;;5022630;28;20084;-81
2021/03/23 01:05:10;;;;;;;4.70;3.00;;;5.60;90.20;;;;;;5024930;28;21233;-81
2021/03/23 01:07:36;;;;;;;6.88;3.13;;;5.60;90.20;;;;;;5024177;28;20030;-81
2021/03/23 01:10:04;;;;;;;8.10;3.40;;;5.60;90.20;;;;;;5022895;28;20056;-81
2021/03/23 01:12:30;;;;;;;5.72;3.15;;;5.60;90.30;;;;;;5024341;28;20065;-82
2021/03/23 01:14:55;;;;;;;5.90;2.80;;;5.60;90.30;;;;;;5005134;28;20120;-81
2021/03/23 01:17:21;;;;;;;7.95;3.20;;;5.60;90.30;;;;;;5026386;28;20025;-80
2021/03/23 01:19:47;;;;;;;8.90;3.05;;;5.60;90.30;;;;;;5029610;28;20034;-82
2021/03/23 01:22:13;;;;;;;7.05;3.25;;;5.60;90.30;;;;;;5030388;28;20117;-82
2021/03/23 01:24:39;;;;;;;7.07;3.13;;;5.60;90.30;;;;;;5026164;28;20044;-81
2021/03/23 01:27:06;;;;;;;6.68;3.15;;;5.60;90.40;;;;;;5022506;28;20038;-82
2021/03/23 01:29:32;;;;;;;7.80;3.60;;;5.60;90.40;;;;;;5025658;28;20033;-80
2021/03/23 01:31:58;;;;;;;11.27;3.50;;;5.50;90.40;;;;;;5011619;28;20064;-81
2021/03/23 01:34:24;;;;;;;8.50;3.17;;;5.60;90.40;;;;;;5016231;28;20034;-81
2021/03/23 01:36:50;;;;;;;6.15;3.20;;;5.60;90.40;;;;;;5012211;28;20177;-82
2021/03/23 01:39:16;;;;;;;7.80;3.28;;;5.60;90.40;;;;;;4994146;28;20041;-82
2021/03/23 01:41:42;;;;;;;10.00;4.03;;;5.60;90.80;;;;;;5027629;28;20067;-82
2021/03/23 01:44:08;;;;;;;9.82;3.63;;;5.60;90.50;;;;;;5023834;28;20042;-82
2021/03/23 01:46:42;;;;;;;7.35;3.40;;;5.60;90.50;;;;;;5014033;28;20025;-81
2021/03/23 01:49:17;;;;;;;6.80;3.60;;;5.60;90.50;;;;;;5022935;28;20034;-80
2021/03/23 01:51:47;;;;;;;8.95;3.33;;;5.60;90.60;;;;;;5030457;28;20048;-82
2021/03/23 01:54:21;;;;;;;5.53;3.50;;;5.60;90.60;;;;;;5026246;28;20038;-81
2021/03/23 01:56:53;;;;;;;6.78;3.38;;;5.60;90.60;;;;;;5028081;28;21235;-80
2021/03/23 01:59:22;;;;;;;9.70;3.67;;;5.60;90.60;;;;;;5032252;28;20037;-82
2021/03/23 02:01:48;;;;;;;8.68;3.78;;;5.60;90.60;;;;;;5028216;28;20044;-81
2021/03/23 02:04:15;;;;;;;8.30;3.88;;;5.60;90.60;;;;;;5033216;28;20097;-81
2021/03/23 02:06:47;;;;;;;7.28;3.40;;;5.60;90.60;;;;;;5024537;28;20042;-82
2021/03/23 02:09:27;;;;;;;7.43;3.65;;;5.60;90.70;;;;;;5029982;28;20451;-81
2021/03/23 02:12:00;;;;;;;8.38;3.90;;;5.60;90.70;;;;;;5035250;28;20060;-82
2021/03/23 02:14:29;;;;;;;8.90;3.90;;;5.50;91.00;;;;;;5027559;28;20034;-81
2021/03/23 02:17:22;;;;;;;6.28;4.03;;;5.60;90.80;;;;;;5027617;28;20030;-81
2021/03/23 02:19:59;;;;;;;11.32;4.10;;;5.60;90.80;;;;;;5032493;28;20042;-81
2021/03/23 02:22:29;;;;;;;9.88;4.25;;;5.60;90.80;;;;;;5034209;28;20048;-80
2021/03/23 02:24:55;;;;;;;11.68;4.38;;;5.60;90.80;;;;;;5036874;28;20117;-81
2021/03/23 02:27:23;;;;;;;11.60;4.60;;;5.60;90.80;;;;;;5028993;28;20042;-80
2021/03/23 02:29:52;;;;;;;12.45;4.90;;;5.60;90.90;;;;;;5010778;28;20033;-80
2021/03/23 02:32:18;;;;;;;8.45;4.10;;;5.60;90.90;;;;;;4998885;28;20349;-82
2021/03/23 02:34:44;;;;;;;7.45;4.07;;;5.60;91.00;;;;;;5012700;28;20041;-80
2021/03/23 02:37:11;;;;;;;9.88;4.80;;;5.60;91.00;;;;;;5023769;28;20416;-82
2021/03/23 02:39:38;;;;;;;7.35;4.57;;;5.60;91.00;;;;;;5010845;28;20744;-82
2021/03/23 02:42:05;;;;;;;8.65;4.93;;;5.50;91.00;;;;;;5022982;28;20044;-81
2021/03/23 02:44:46;;;;;;;10.15;4.90;;;5.50;91.00;;;;;;5023202;28;20060;-82
2021/03/23 02:47:13;;;;;;;12.55;4.85;;;5.50;91.10;;;;;;5031090;28;20056;-80
2021/03/23 02:49:40;;;;;;;13.93;4.90;;;5.40;91.10;;;;;;5011545;28;20148;-81
2021/03/23 02:52:07;;;;;;;14.98;5.28;;;5.40;91.10;;;;;;5013758;28;20029;-80
2021/03/23 02:54:33;;;;;;;10.95;5.07;;;5.40;91.10;;;;;;5026223;28;20072;-81
2021/03/23 02:56:59;;;;;;;10.43;4.43;;;5.40;91.10;;;;;;5008517;28;20021;-82
2021/03/23 02:59:25;;;;;;;8.40;4.85;;;5.40;91.20;;;;;;5024231;28;20045;-82
2021/03/23 03:01:51;;;;;;;10.40;5.20;;;5.40;91.20;;;;;;5027064;28;20432;-81
2021/03/23 03:04:16;;;;;;;9.73;5.50;;;5.30;91.20;;;;;;4977331;28;20061;-82
2021/03/23 03:06:42;;;;;;;8.15;5.18;;;5.30;91.30;;;;;;5010200;28;20038;-80
2021/03/23 03:09:08;;;;;;;12.20;5.57;;;5.20;91.30;;;;;;5027209;28;20455;-81
2021/03/23 03:11:34;;;;;;;12.88;5.93;;;5.20;91.30;;;;;;5020658;28;20030;-82
2021/03/23 03:14:00;;;;;;;15.02;6.00;;;5.10;91.30;;;;;;5022453;28;20092;-81
2021/03/23 03:16:28;;;;;;;12.45;5.97;;;5.10;91.40;;;;;;5023117;28;20116;-81
2021/03/23 03:18:54;;;;;;;9.82;6.00;;;5.00;91.40;;;;;;4991748;28;20472;-82
2021/03/23 03:21:20;;;;;;;11.40;6.22;;;5.00;91.40;;;;;;5006249;28;20038;-81
2021/03/23 03:23:47;;;;;;;13.52;6.72;;;5.00;91.80;;;;;;5026524;28;20113;-81
2021/03/23 03:26:12;;;;;;;16.08;7.05;;;4.90;91.50;;;;;;5023406;28;20404;-81
2021/03/23 03:28:39;;;;;;;14.90;6.95;;;4.80;91.50;;;;;;5023323;28;20388;-82
2021/03/23 03:31:05;;;;;;;14.30;7.30;;;4.80;91.50;;;;;;5003365;28;20033;-82
2021/03/23 03:33:31;;;;;;;12.05;6.93;;;4.80;91.60;;;;;;5021485;28;20089;-81
2021/03/23 03:35:58;;;;;;;14.43;8.00;;;4.80;91.60;;;;;;5008338;28;20133;-80
2021/03/23 03:38:26;;;;;;;14.18;7.68;;;4.80;91.70;;;;;;4985124;28;20034;-81
2021/03/23 03:40:55;;;;;;;18.77;8.05;;;4.70;91.70;;;;;;5007310;28;20037;-81
2021/03/23 03:43:23;;;;;;;23.15;8.57;;;4.60;91.70;;;;;;5020206;28;20036;-82
2021/03/23 03:45:49;;;;;;;17.92;8.98;;;4.60;91.70;;;;;;5023522;28;20029;-81
2021/03/23 03:48:15;;;;;;;18.85;8.48;;;4.50;91.70;;;;;;5019411;28;20038;-81
2021/03/23 03:50:41;;;;;;;16.92;8.43;;;4.40;91.80;;;;;;5025924;28;20378;-81
2021/03/23 03:53:08;;;;;;;18.85;8.80;;;4.40;91.80;;;;;;5011418;28;20029;-81
2021/03/23 03:55:37;;;;;;;16.02;8.35;;;4.40;91.80;;;;;;5026639;28;20055;-81
2021/03/23 03:58:04;;;;;;;17.70;9.00;;;4.30;91.80;;;;;;5028393;28;20488;-80
2021/03/23 04:00:32;;;;;;;16.75;9.23;;;4.30;91.90;;;;;;5013318;28;20045;-79
2021/03/23 04:02:59;;;;;;;20.70;9.52;;;4.20;91.90;;;;;;5024492;28;20071;-78
2021/03/23 04:05:29;;;;;;;17.83;9.45;;;4.30;92.00;;;;;;5011201;28;20041;-80
2021/03/23 04:07:55;;;;;;;21.88;10.05;;;4.30;92.00;;;;;;5027415;28;20081;-80
2021/03/23 04:10:22;;;;;;;17.70;10.23;;;4.10;91.90;;;;;;5025235;28;20037;-80
2021/03/23 04:12:48;;;;;;;22.40;11.55;;;4.20;92.00;;;;;;5010018;28;20033;-80
2021/03/23 04:15:25;;;;;;;23.58;11.65;;;4.10;92.00;;;;;;5029068;28;20164;-80
2021/03/23 04:17:51;;;;;;;27.02;13.27;;;4.00;92.10;;;;;;5022704;28;20049;-79
2021/03/23 04:20:18;;;;;;;22.25;12.45;;;4.00;92.10;;;;;;4996144;28;20033;-81
2021/03/23 04:22:45;;;;;;;27.95;13.77;;;4.00;92.20;;;;;;5023829;28;20032;-80
2021/03/23 04:25:12;;;;;;;28.00;14.65;;;4.00;92.20;;;;;;5019229;28;20038;-80
2021/03/23 04:27:38;;;;;;;28.73;14.02;;;4.00;92.20;;;;;;5023915;28;20341;-80
2021/03/23 04:30:06;;;;;;;28.45;14.48;;;4.10;92.20;;;;;;5001534;28;20038;-81
2021/03/23 04:32:32;;;;;;;26.83;14.35;;;4.10;92.20;;;;;;5022352;28;20039;-80
2021/03/23 04:34:58;;;;;;;26.02;14.25;;;4.20;92.20;;;;;;5009305;28;20172;-78
2021/03/23 04:37:23;;;;;;;27.38;14.82;;;4.30;92.20;;;;;;5005641;28;20033;-78
2021/03/23 04:39:49;;;;;;;23.08;13.73;;;4.20;92.20;;;;;;5023617;28;20030;-79
2021/03/23 04:42:15;;;;;;;28.33;14.73;;;4.30;92.20;;;;;;5004371;28;20042;-79
2021/03/23 04:44:41;;;;;;;32.03;14.68;;;4.30;92.20;;;;;;5025053;28;20057;-80
2021/03/23 04:47:07;;;;;;;26.38;14.35;;;4.30;92.20;;;;;;5004845;28;20048;-80
2021/03/23 04:49:33;;;;;;;29.13;13.52;;;4.30;92.30;;;;;;5023645;28;20091;-80
2021/03/23 04:51:59;;;;;;;25.80;14.18;;;4.30;92.20;;;;;;5006180;28;20033;-78
2021/03/23 04:54:25;;;;;;;25.10;13.93;;;4.30;92.30;;;;;;5009321;28;20503;-81
2021/03/23 04:56:51;;;;;;;28.80;14.00;;;4.40;92.30;;;;;;5026829;28;20042;-80
2021/03/23 04:59:17;;;;;;;23.80;12.68;;;4.40;92.30;;;;;;5024336;28;20400;-80
2021/03/23 05:01:43;;;;;;;26.30;13.77;;;4.30;92.30;;;;;;5026685;28;20131;-77
2021/03/23 05:04:15;;;;;;;22.80;13.18;;;4.30;92.30;;;;;;5026542;28;20053;-80
2021/03/23 05:06:41;;;;;;;27.13;13.30;;;4.40;92.30;;;;;;5026285;28;20140;-79
2021/03/23 05:09:08;;;;;;;29.77;13.85;;;4.40;92.30;;;;;;4989640;28;20040;-80
2021/03/23 05:11:34;;;;;;;30.25;14.13;;;4.30;92.30;;;;;;5029559;28;20124;-80
2021/03/23 05:14:02;;;;;;;25.33;13.98;;;4.40;92.40;;;;;;5021574;28;20168;-79
2021/03/23 05:16:28;;;;;;;26.42;14.35;;;4.40;92.40;;;;;;5025867;28;20036;-80
2021/03/23 05:18:54;;;;;;;28.88;14.80;;;4.40;92.40;;;;;;5027553;28;20061;-80
2021/03/23 05:21:21;;;;;;;28.35;14.30;;;4.40;92.40;;;;;;5027186;28;20091;-80
2021/03/23 05:23:48;;;;;;;24.80;14.65;;;4.50;92.40;;;;;;5029590;28;20458;-80
2021/03/23 05:26:14;;;;;;;34.13;15.77;;;4.50;92.30;;;;;;5012552;28;20057;-80
2021/03/23 05:28:40;;;;;;;31.05;14.98;;;4.60;92.40;;;;;;5027042;28;20260;-81
2021/03/23 05:31:06;;;;;;;35.55;15.20;;;4.60;92.30;;;;;;4988580;28;20034;-80
2021/03/23 05:33:32;;;;;;;30.15;15.07;;;4.60;92.40;;;;;;4990836;28;20034;-80
2021/03/23 05:35:59;;;;;;;29.15;15.27;;;4.60;92.30;;;;;;5029730;28;20132;-80
2021/03/23 05:38:28;;;;;;;30.92;15.38;;;4.70;92.30;;;;;;4992940;28;20798;-80
2021/03/23 05:41:05;;;;;;;26.70;14.45;;;4.70;92.30;;;;;;5025159;28;20449;-80
2021/03/23 05:43:30;;;;;;;30.73;14.88;;;4.70;92.30;;;;;;5025135;28;20036;-79
2021/03/23 05:46:08;;;;;;;26.92;15.32;;;4.80;92.30;;;;;;5026765;28;20038;-79
2021/03/23 05:48:36;;;;;;;24.90;15.32;;;4.80;92.30;;;;;;5035130;28;20034;-81
2021/03/23 05:51:10;;;;;;;28.38;14.18;;;4.80;92.20;;;;;;5016829;28;20041;-80
2021/03/23 05:53:55;;;;;;;31.10;16.13;;;4.80;92.20;;;;;;5029876;28;20559;-80
2021/03/23 05:56:21;;;;;;;27.27;13.80;;;4.90;92.20;;;;;;5040446;28;20041;-81
2021/03/23 05:58:53;;;;;;;29.27;15.13;;;4.90;92.20;;;;;;5012866;28;20030;-79
2021/03/23 06:01:30;;;;;;;25.00;13.32;;;4.90;92.10;;;;;;5025030;28;20052;-82
2021/03/23 06:04:17;;;;;;;24.60;13.32;;;5.00;92.10;;;;;;5024856;28;20038;-81
2021/03/23 06:07:00;;;;;;;25.63;13.30;;;5.00;92.00;;;;;;5018474;28;20029;-80
2021/03/23 06:09:34;;;;;;;32.97;14.63;;;5.00;92.00;;;;;;5025494;28;20123;-80
2021/03/23 06:12:10;;;;;;;25.65;13.63;;;5.00;92.00;;;;;;5016881;28;20034;-80
2021/03/23 06:15:04;;;;;;;23.98;11.98;;;5.00;91.90;;;;;;5025605;28;20083;-80
2021/03/23 06:17:49;;;;;;;25.77;13.35;;;5.10;91.90;;;;;;5013913;28;20061;-80
2021/03/23 06:20:40;;;;;;;28.58;12.45;;;5.10;91.90;;;;;;5031413;28;20037;-82
2021/03/23 06:23:24;;;;;;;22.88;12.48;;;5.10;91.80;;;;;;5022933;28;20414;-81
2021/03/23 06:26:20;;;;;;;27.42;13.23;;;5.20;91.80;;;;;;5026559;28;20091;-82
2021/03/23 06:28:59;;;;;;;27.73;13.00;;;5.20;91.70;;;;;;5030817;28;20029;-81
2021/03/23 06:31:44;;;;;;;27.85;12.20;;;5.20;91.60;;;;;;5020194;28;20034;-82
2021/03/23 06:34:24;;;;;;;23.65;12.55;;;5.30;91.70;;;;;;5022018;28;20064;-80
2021/03/23 06:36:50;;;;;;;24.08;11.77;;;5.30;91.60;;;;;;5024712;28;20041;-84
2021/03/23 06:39:17;;;;;;;25.17;11.27;;;5.30;91.60;;;;;;5019901;28;21479;-83
2021/03/23 06:41:57;;;;;;;19.55;11.68;;;5.40;91.50;;;;;;5007655;28;20061;-81
2021/03/23 06:44:27;;;;;;;28.92;12.50;;;5.40;91.50;;;;;;5018671;28;20036;-85
2021/03/23 06:46:54;;;;;;;28.08;12.75;;;5.50;91.50;;;;;;5014686;28;20038;-84
2021/03/23 06:49:30;;;;;;;27.75;12.63;;;5.50;91.50;;;;;;5013647;28;20044;-80
2021/03/23 06:52:02;;;;;;;22.17;12.38;;;5.50;91.50;;;;;;5020460;28;20022;-80
2021/03/23 06:54:36;;;;;;;24.13;11.85;;;5.60;91.50;;;;;;5019913;28;20044;-80
2021/03/23 06:57:11;;;;;;;26.58;12.55;;;5.70;91.40;;;;;;5003483;28;20041;-82
2021/03/23 06:59:59;;;;;;;22.02;12.40;;;5.70;91.30;;;;;;5016623;28;20125;-84
2021/03/23 07:02:38;;;;;;;28.23;12.57;;;5.80;91.30;;;;;;5016976;28;20022;-81
2021/03/23 07:05:35;;;;;;;31.35;13.05;;;5.90;91.30;;;;;;5014106;28;20044;-81
2021/03/23 07:08:07;;;;;;;28.63;12.90;;;5.90;91.20;;;;;;5019144;28;20639;-79
2021/03/23 07:10:35;;;;;;;30.10;12.87;;;6.00;91.20;;;;;;5013600;28;20124;-81
2021/03/23 07:13:01;;;;;;;32.95;14.18;;;6.00;91.10;;;;;;5023026;28;20296;-80
2021/03/23 07:15:33;;;;;;;27.30;13.05;;;6.10;91.10;;;;;;5001585;28;20041;-81
2021/03/23 07:18:13;;;;;;;32.20;14.30;;;6.10;91.10;;;;;;5016526;28;20060;-81
2021/03/23 07:20:49;;;;;;;26.30;13.80;;;6.20;91.10;;;;;;5024687;28;20500;-81
2021/03/23 07:23:37;;;;;;;32.13;14.73;;;6.20;91.10;;;;;;5019305;28;20148;-83
2021/03/23 07:26:29;;;;;;;27.92;13.80;;;6.30;91.00;;;;;;5016336;28;20034;-81
2021/03/23 07:29:22;;;;;;;29.40;13.90;;;6.30;90.90;;;;;;5023279;28;20025;-80
2021/03/23 07:31:51;;;;;;;36.35;14.90;;;6.30;90.80;;;;;;5015996;28;20035;-80
2021/03/23 07:34:21;;;;;;;27.88;14.02;;;6.40;90.80;;;;;;5020412;28;20492;-80
2021/03/23 07:36:58;;;;;;;27.63;14.80;;;6.40;90.80;;;;;;5015669;28;20041;-82
2021/03/23 07:39:44;;;;;;;29.08;14.98;;;6.40;90.70;;;;;;5029909;28;20760;-83
2021/03/23 07:42:26;;;;;;;28.50;14.50;;;6.50;90.70;;;;;;5010083;28;20049;-82
2021/03/23 07:45:11;;;;;;;29.38;15.57;;;6.50;90.60;;;;;;5034432;28;20045;-83
2021/03/23 07:47:48;;;;;;;33.10;16.13;;;6.60;90.50;;;;;;5028669;28;20029;-82
2021/03/23 07:50:24;;;;;;;34.05;16.38;;;6.60;90.60;;;;;;5026553;28;20154;-83
2021/03/23 07:52:58;;;;;;;32.63;16.02;;;6.70;90.50;;;;;;5022006;28;20048;-82
2021/03/23 07:55:27;;;;;;;33.75;17.42;;;6.70;90.40;;;;;;5023703;28;20110;-83
2021/03/23 07:58:17;;;;;;;33.40;17.55;;;6.80;90.40;;;;;;5021903;28;20045;-83
2021/03/23 08:01:01;;;;;;;35.97;18.10;;;6.80;90.20;;;;;;5024888;28;20037;-80
2021/03/23 08:03:37;;;;;;;40.55;18.88;;;6.90;90.30;;;;;;5023630;28;20594;-81
2021/03/23 08:06:32;;;;;;;37.90;19.45;;;7.00;90.20;;;;;;5019888;28;20045;-82
2021/03/23 08:09:19;;;;;;;40.22;20.17;;;7.00;90.20;;;;;;5013197;28;20060;-83
2021/03/23 08:11:51;;;;;;;38.35;20.35;;;7.10;90.10;;;;;;5032324;28;20033;-81
2021/03/23 08:14:55;;;;;;;40.30;20.52;;;7.00;90.00;;;;;;5024461;28;20058;-81
2021/03/23 08:17:43;;;;;;;45.67;21.65;;;7.00;89.90;;;;;;5000936;28;20049;-80
2021/03/23 08:20:32;;;;;;;49.15;22.77;;;7.00;90.20;;;;;;5027481;28;20100;-82
2021/03/23 08:23:23;;;;;;;43.88;22.08;;;7.00;90.20;;;;;;5027353;28;21362;-82
2021/03/23 08:26:08;;;;;;;42.88;23.35;;;7.10;90.20;;;;;;5021825;28;20399;-80
2021/03/23 08:28:49;;;;;;;49.80;24.17;;;7.10;90.20;;;;;;4997633;28;20061;-79
2021/03/23 08:31:36;;;;;;;45.92;23.73;;;7.20;90.10;;;;;;5019221;28;20030;-84
2021/03/23 08:34:28;;;;;;;47.03;24.90;;;7.20;90.10;;;;;;5019075;28;20056;-81
2021/03/23 08:37:05;;;;;;;49.33;25.20;;;7.50;90.10;;;;;;5022425;28;20037;-82
2021/03/23 08:39:53;;;;;;;44.33;24.20;;;7.70;90.00;;;;;;5022220;28;20171;-82
2021/03/23 08:42:24;;;;;;;43.42;25.52;;;7.80;89.80;;;;;;5022633;28;20042;-80
2021/03/23 08:45:08;;;;;;;47.38;26.13;;;7.90;89.40;;;;;;5024964;28;20029;-82
2021/03/23 08:47:44;;;;;;;53.47;26.85;;;7.90;89.10;;;;;;5024224;28;20091;-80
2021/03/23 08:50:23;;;;;;;54.75;28.50;;;8.00;89.00;;;;;;5030196;28;20042;-82
2021/03/23 08:52:54;;;;;;;54.53;29.63;;;8.10;88.90;;;;;;5025551;28;20029;-81
2021/03/23 08:55:33;;;;;;;53.20;29.88;;;8.10;88.90;;;;;;5023263;28;20443;-80
2021/03/23 08:58:01;;;;;;;49.40;28.27;;;8.10;89.00;;;;;;5026904;28;20064;-81
2021/03/23 09:00:36;;;;;;;57.85;28.95;;;8.20;89.20;;;;;;5023225;28;20038;-83
2021/03/23 09:03:43;;;;;;;51.03;28.25;;;8.20;88.60;;;;;;5027809;28;20030;-82
2021/03/23 09:06:15;;;;;;;54.72;27.58;;;8.30;88.70;;;;;;5024210;28;20056;-81
2021/03/23 09:08:47;;;;;;;51.53;29.58;;;8.40;88.60;;;;;;5027955;28;20064;-82
2021/03/23 09:11:31;;;;;;;50.17;28.60;;;8.50;88.40;;;;;;5044223;28;20037;-82
2021/03/23 09:14:11;;;;;;;52.50;30.35;;;8.50;87.40;;;;;;5031250;28;20408;-80
2021/03/23 09:17:12;;;;;;;53.85;29.23;;;8.60;88.00;;;;;;5037855;28;20075;-83
2021/03/23 09:19:45;;;;;;;55.78;29.98;;;8.80;88.50;;;;;;5034077;28;20044;-82
2021/03/23 09:22:17;;;;;;;48.47;29.52;;;8.90;87.30;;;;;;5031346;28;20037;-81
2021/03/23 09:24:44;;;;;;;50.22;29.58;;;9.00;86.60;;;;;;5028185;28;20075;-82
2021/03/23 09:27:29;;;;;;;52.72;29.05;;;9.10;86.40;;;;;;5030115;28;20060;-81
2021/03/23 09:29:55;;;;;;;54.05;29.50;;;9.10;84.80;;;;;;5021725;28;20037;-84
2021/03/23 09:32:24;;;;;;;52.75;31.48;;;9.10;86.10;;;;;;5034538;28;20056;-83
2021/03/23 09:35:10;;;;;;;57.38;34.03;;;9.20;85.90;;;;;;5042712;28;20787;-84
2021/03/23 09:37:45;;;;;;;52.90;30.10;;;9.20;85.70;;;;;;5044504;28;20053;-83
2021/03/23 09:40:17;;;;;;;49.75;29.17;;;9.20;85.70;;;;;;5044223;28;20103;-84
2021/03/23 09:42:47;;;;;;;42.80;25.53;;;9.20;85.30;;;;;;5038988;28;20037;-85
2021/03/23 09:45:13;;;;;;;36.50;24.83;;;9.20;84.60;;;;;;5042680;28;20527;-83
2021/03/23 09:47:55;;;;;;;39.38;26.77;;;9.30;83.20;;;;;;5040380;28;20104;-82
2021/03/23 09:50:36;;;;;;;43.75;28.20;;;9.30;82.80;;;;;;5062431;28;20057;-81
2021/03/23 09:53:11;;;;;;;42.72;27.73;;;9.30;82.70;;;;;;5025866;28;20064;-81
2021/03/23 09:55:40;;;;;;;42.95;26.95;;;9.30;82.20;;;;;;5040875;28;20033;-81
2021/03/23 09:58:12;;;;;;;44.42;27.73;;;9.30;81.80;;;;;;5014207;28;20489;-81
2021/03/23 10:00:38;;;;;;;43.80;27.73;;;9.30;82.20;;;;;;5040138;28;20037;-82
2021/03/23 10:03:19;;;;;;;46.50;27.17;;;9.40;82.30;;;;;;5020891;28;20041;-83
2021/03/23 10:05:58;;;;;;;42.38;26.45;;;9.40;81.50;;;;;;5033282;28;20029;-84
2021/03/23 10:08:25;;;;;;;46.85;26.90;;;9.50;81.00;;;;;;5026937;28;20106;-83
2021/03/23 10:10:51;;;;;;;40.55;27.33;;;9.50;81.90;;;;;;5016050;28;20045;-82
2021/03/23 10:13:29;;;;;;;42.15;26.30;;;9.60;81.60;;;;;;5034201;28;20040;-82
2021/03/23 10:15:56;;;;;;;36.83;25.38;;;9.70;81.70;;;;;;5036597;28;20028;-83
2021/03/23 10:18:52;;;;;;;44.10;26.45;;;9.90;81.70;;;;;;5027946;28;20042;-83
2021/03/23 10:21:25;;;;;;;36.05;24.60;;;10.10;77.20;;;;;;5023594;28;20140;-83
2021/03/23 10:23:58;;;;;;;37.72;25.60;;;10.30;77.40;;;;;;5018549;28;20049;-84
2021/03/23 10:26:32;;;;;;;39.30;25.85;;;10.30;77.50;;;;;;4998886;28;20499;-82
2021/03/23 10:29:20;;;;;;;41.55;26.00;;;10.20;77.80;;;;;;5027100;28;20049;-82
2021/03/23 10:31:52;;;;;;;35.28;24.45;;;10.10;76.60;;;;;;5027394;28;20036;-82
2021/03/23 10:34:22;;;;;;;37.53;25.92;;;10.10;77.20;;;;;;5029546;28;20038;-83
2021/03/23 10:36:56;;;;;;;41.63;27.55;;;10.10;77.40;;;;;;5014523;28;20048;-82
2021/03/23 10:39:43;;;;;;;37.78;25.83;;;10.00;77.80;;;;;;5030464;28;20049;-81
2021/03/23 10:42:29;;;;;;;37.30;24.95;;;10.00;78.10;;;;;;5031643;28;20438;-82
2021/03/23 10:45:22;;;;;;;40.08;26.58;;;9.90;78.40;;;;;;5030816;28;20041;-84
2021/03/23 10:48:08;;;;;;;39.88;25.80;;;10.00;77.70;;;;;;5030579;28;20045;-82
2021/03/23 10:50:35;;;;;;;39.38;26.38;;;10.00;78.10;;;;;;5013722;28;20314;-82
2021/03/23 10:53:11;;;;;;;39.70;27.60;;;10.20;78.40;;;;;;5030645;28;20026;-82
2021/03/23 10:55:42;;;;;;;38.28;25.63;;;10.40;77.50;;;;;;5029448;28;20040;-82
2021/03/23 10:58:39;;;;;;;43.38;26.23;;;10.60;77.70;;;;;;5031303;28;20037;-80
2021/03/23 11:01:17;;;;;;;40.05;27.20;;;10.80;76.70;;;;;;5026277;28;20045;-82
2021/03/23 11:03:45;;;;;;;42.05;27.13;;;10.80;75.80;;;;;;5027238;28;20040;-83
2021/03/23 11:06:33;;;;;;;41.47;26.58;;;10.70;75.40;;;;;;5009234;28;20088;-84
2021/03/23 11:09:00;;;;;;;43.50;27.33;;;10.60;73.50;;;;;;5028939;28;20021;-84
2021/03/23 11:11:26;;;;;;;44.65;28.58;;;10.50;75.70;;;;;;5023623;28;20044;-82
2021/03/23 11:13:52;;;;;;;41.97;27.13;;;10.40;75.50;;;;;;5006882;28;20113;-82
2021/03/23 11:16:21;;;;;;;43.28;27.55;;;10.30;74.70;;;;;;5024831;28;20541;-83
2021/03/23 11:18:48;;;;;;;47.45;27.50;;;10.40;75.40;;;;;;5026251;28;20040;-82
2021/03/23 11:21:18;;;;;;;42.30;28.48;;;10.50;75.10;;;;;;5004595;28;20042;-83
2021/03/23 11:23:51;;;;;;;43.75;27.42;;;10.60;75.30;;;;;;5027906;28;20053;-80
2021/03/23 11:26:19;;;;;;;;;;;10.70;75.10;;;;;;5039263;28;20064;-83
2021/03/23 11:28:46;;;;;;;44.05;30.52;;;10.90;72.10;;;;;;5030532;28;19920;-83
2021/03/23 11:31:15;;;;;;;43.90;29.00;;;11.10;75.10;;;;;;5009408;28;20063;-81
2021/03/23 11:33:41;;;;;;;46.15;30.02;;;11.10;74.30;;;;;;5025155;28;20037;-84
2021/03/23 11:36:07;;;;;;;41.53;28.92;;;11.10;74.20;;;;;;5012621;28;20037;-83
2021/03/23 11:38:34;;;;;;;44.38;30.15;;;11.20;74.30;;;;;;4993037;28;20420;-84
2021/03/23 11:41:03;;;;;;;46.83;30.42;;;11.20;74.60;;;;;;5028301;28;20037;-84
2021/03/23 11:43:36;;;;;;;45.30;30.00;;;11.20;74.50;;;;;;5028961;28;20479;-83
2021/03/23 11:46:21;;;;;;;46.22;30.60;;;11.20;74.20;;;;;;5028841;28;20049;-84
2021/03/23 11:48:51;;;;;;;42.78;30.05;;;11.20;74.20;;;;;;5031960;28;20029;-84
2021/03/23 11:51:21;;;;;;;51.45;32.17;;;11.20;74.00;;;;;;5032589;28;20112;-83
2021/03/23 11:53:48;;;;;;;44.28;30.00;;;11.20;74.20;;;;;;4993464;28;20037;-84
2021/03/23 11:56:15;;;;;;;45.63;30.40;;;11.20;74.20;;;;;;5020886;28;20039;-85
2021/03/23 11:58:41;;;;;;;49.92;31.65;;;11.10;74.00;;;;;;5008244;28;20057;-83
2021/03/23 12:01:07;;;;;;;53.80;32.22;;;11.00;73.90;;;;;;5026124;28;20057;-83
2021/03/23 12:03:33;;;;;;;46.67;31.17;;;11.00;74.10;;;;;;5006132;28;20087;-84
2021/03/23 12:06:00;;;;;;;49.30;33.00;;;11.00;73.50;;;;;;5003595;28;20041;-81
2021/03/23 12:08:47;;;;;;;56.30;33.85;;;10.90;74.20;;;;;;5019191;28;20034;-82
2021/03/23 12:11:42;;;;;;;47.95;33.20;;;11.00;73.60;;;;;;5036357;28;20060;-82
2021/03/23 12:14:23;;;;;;;52.10;32.70;;;11.00;74.40;;;;;;5030009;28;20148;-82
2021/03/23 12:17:01;;;;;;;53.90;33.92;;;11.00;74.20;;;;;;5021017;28;20164;-82
2021/03/23 12:19:51;;;;;;;52.63;34.20;;;10.90;74.10;;;;;;5020512;28;20060;-83
2021/03/23 12:22:17;;;;;;;53.17;33.83;;;10.90;74.50;;;;;;5021653;28;20057;-82
2021/03/23 12:24:45;;;;;;;56.55;36.33;;;10.90;74.80;;;;;;5023483;28;20048;-83
2021/03/23 12:27:11;;;;;;;57.35;37.15;;;10.90;74.30;;;;;;5009688;28;20095;-84
2021/03/23 12:29:38;;;;;;;57.03;35.83;;;10.90;74.70;;;;;;5021074;28;20144;-83
2021/03/23 12:32:15;;;;;;;58.28;37.25;;;10.90;74.60;;;;;;5027125;28;20033;-81
2021/03/23 12:34:43;;;;;;;58.65;38.15;;;10.80;74.50;;;;;;5011466;28;20041;-84
2021/03/23 12:37:10;;;;;;;57.03;35.55;;;10.70;74.70;;;;;;5020853;28;20030;-82
2021/03/23 12:39:37;;;;;;;58.85;37.75;;;10.70;74.50;;;;;;5020673;28;20076;-82
2021/03/23 12:42:04;;;;;;;57.78;37.92;;;10.60;74.30;;;;;;4993902;28;20029;-82
2021/03/23 12:44:30;;;;;;;58.90;37.38;;;10.60;74.50;;;;;;5007047;28;20036;-83
2021/03/23 12:46:55;;;;;;;60.90;39.50;;;10.60;74.30;;;;;;5024710;28;20504;-83
2021/03/23 12:49:21;;;;;;;61.75;39.17;;;10.70;75.40;;;;;;5009313;28;20112;-84
2021/03/23 12:51:51;;;;;;;60.13;39.78;;;10.60;74.50;;;;;;5010188;28;20472;-84
2021/03/23 12:54:24;;;;;;;63.42;39.78;;;10.60;74.80;;;;;;5025120;28;20045;-83
2021/03/23 12:56:50;;;;;;;66.80;39.65;;;10.70;75.00;;;;;;5021845;28;20036;-84
2021/03/23 12:59:24;;;;;;;60.95;38.67;;;10.70;74.50;;;;;;5025796;28;21244;-84
2021/03/23 13:01:50;;;;;;;59.83;38.55;;;10.70;74.10;;;;;;5024953;28;20033;-82
2021/03/23 13:04:16;;;;;;;59.90;39.30;;;10.70;74.00;;;;;;5020874;28;20489;-83
2021/03/23 13:06:42;;;;;;;57.75;38.97;;;10.80;74.30;;;;;;5017882;28;20041;-83